OOL weather

Gold Coast Airport
Gold Coast, Queensland, Australia

Public forecast

Using degrees Celsius for public forecast. Weather courtesy of forecast.io.

METAR (pilot weather report)

Retrieved 2018/10/23 05:00 UTC (7 minutes ago):

YBCG 230500Z AUTO 06009KT 9999 // NCD 24/18 Q1014 RF00.0/000.0

TAF (pilot weather forecast)

Forecast is more than 12 hours old.

Retrieved 2018/10/22 00:00 UTC (1 day ago):

TAF YBCG 222259Z 2300/2324 14008KT 9999 SCT025 FM230200 07012KT 9999 FEW030 FM231000 36005KT 9999 SCT018 FM232200 32010KT 9999 FEW020